Aeroporto :
LOGIN :

Iscrizione | Disclaimer

   EN    FR    IT 

 










Sommario :    VFR   VFR Marginale   IFR   IFR Intensivo   IFR Molto Intensivo
Visibilità : 
Base nubi : 
>= 8 km
>= 3000ft
5 / 8 km
1000 / 3000 ft
1500m / 5 km
500 / 1000 ft
800 / 1500m
200 / 500 ft
< 800m
< 200 ft
Simboli :   Temporali  Nebbia  Neve Forte  Precipitazioni Forti  Vento > 20 kt
SIGMETs :   Varie  Temporali  Ghiacco  Turbolenza  Onda orograficha  Ceneri Vulcaniche






- Altitudine del aeroporto : 1276 ft
- Codice IATA : STR


EDDS - Stuttgart

ULTIMO METAR :
  • 291720Z 09007KT 060V150 CAVOK 19/05 Q1022 NOSIG

METARs OBSOLETI :
  • 291650Z 06009KT CAVOK 19/04 Q1022 NOSIG
  • 291620Z 09009KT 060V120 CAVOK 18/05 Q1022 NOSIG
  • 291550Z 08011KT CAVOK 19/05 Q1023 NOSIG
  • 291520Z 07010KT CAVOK 18/04 Q1023 NOSIG
  • 291450Z 05010KT 010V080 CAVOK 19/03 Q1023 NOSIG

TAF TAF EDDS
Valido dal 29 a 18 ore il 30 a 18 ore UTC


291700Z 2918/3018 07010KT CAVOK
BECMG 2918/2921 04004KT
BECMG 3007/3010 04009KT



MetMap, La meteo Aeronautica in un colpo d'occhio ! - Copyright ORBIFLY Dicembre 2007 - Disclaimer

ORBIFLY MET'MAP TEAM :

Programmazione e sviluppo : Alexandra Zaïnal
Concezione : Baudouin d'Aumeries
Aiuto per la programmazione : Marc-Olivier Méhu
Supporto tecnico e logistico : Manuel Goepfert
Aiuto per la traduzione : Arnaldo La Scala

Contatto : metmap@orbifly.com




FONTI E CREDITI :

   NOAA